Lacon, IL

5:39 AM CDT on April 23, 2018 (GMT -0500)
Lacon

Weather History for KC75 - January, 2013

Change the Weather History Date:

Friday, January 4, 2013

  Actual Average (KVYS) Record (KVYS)
Temperature  
Mean Temperature 22 °F -  
Max Temperature 33 °F 31 °F 48 °F (2007)
Min Temperature 12 °F 12 °F -13 °F (1969)
Degree Days  
Heating Degree Days 42    
Moisture  
Dew Point 17 °F    
Average Humidity 72    
Maximum Humidity 86    
Minimum Humidity 58    
Precipitation  
Precipitation 0.00 in - - ()
Sea Level Pressure  
Sea Level Pressure 30.27 in    
Wind  
Wind Speed 8 mph (SSW)    
Max Wind Speed 16 mph    
Max Gust Speed 23 mph    
Visibility 10 miles    
Events      
Averages and records for this station are not official NWS values.
T = Trace of Precipitation, MM = Missing Value Source: NWS Daily Summary

Daily Weather History Graph

Daily Weather History Graph

Search for Another Location

Airport or City:

Astronomy

Jan. 04, 2013 Rise Set
Actual Time 7:22 AM CST 4:42 PM CST
Civil Twilight 6:51 AM CST 5:13 PM CST
Nautical Twilight 6:17 AM CST 5:47 PM CST
Astronomical Twilight 5:43 AM CST 6:21 PM CST
Moon No Moon Rise 11:01 AM CST (1/4)
Length of Visible Light 10h 22m
Length of Day
9h 20m
Waning Gibbous, 55% of the Moon is Illuminated
Jan 4
Waning Gibbous
Jan 4
Last Quarter
Jan 11
New
Jan 18
First Quarter
Jan 26
Full

Hourly Weather History & Observations

Time (CST) Temp. Windchill Dew Point Humidity Pressure Visibility Wind Dir Wind Speed Gust Speed Precip Events Conditions
12:15 AM 14.0 °F 2.9 °F 8.6 °F 79% 30.32 in 10.0 mi West 8.1 mph - N/A   Clear
12:35 AM 14.0 °F 3.9 °F 8.4 °F 78% 30.32 in 10.0 mi West 6.9 mph - N/A   Clear
12:55 AM 13.6 °F 4.6 °F 8.4 °F 80% 30.32 in 10.0 mi WSW 5.8 mph - N/A   Clear
1:15 AM 13.1 °F 7.1 °F 8.4 °F 82% 30.32 in 10.0 mi WSW 3.5 mph - N/A   Clear
1:35 AM 13.1 °F 4.0 °F 8.1 °F 80% 30.32 in 10.0 mi SW 5.8 mph - N/A   Clear
1:55 AM 14.0 °F 6.5 °F 8.6 °F 79% 30.31 in 10.0 mi SW 4.6 mph - N/A   Clear
2:15 AM 12.9 °F 3.8 °F 7.7 °F 80% 30.31 in 10.0 mi SSW 5.8 mph - N/A   Clear
2:35 AM 12.6 °F 4.8 °F 7.7 °F 81% 30.31 in 10.0 mi South 4.6 mph - N/A   Scattered Clouds
2:55 AM 12.7 °F 2.4 °F 8.2 °F 82% 30.31 in 10.0 mi SSW 6.9 mph - N/A   Clear
3:15 AM 12.9 °F 3.8 °F 8.2 °F 82% 30.30 in 10.0 mi SSW 5.8 mph - N/A   Clear
5:55 AM 13.3 °F 4.2 °F 8.8 °F 82% 30.29 in 10.0 mi SSW 5.8 mph - N/A   Clear
6:15 AM 13.1 °F 5.4 °F 9.1 °F 84% 30.29 in 10.0 mi SSW 4.6 mph - N/A   Clear
6:35 AM 12.7 °F 3.6 °F 9.0 °F 85% 30.29 in 10.0 mi South 5.8 mph - N/A   Clear
6:55 AM 12.2 °F 2.9 °F 8.6 °F 85% 30.29 in 10.0 mi South 5.8 mph - N/A   Scattered Clouds
7:15 AM 13.1 °F 4.0 °F 9.5 °F 86% 30.29 in 10.0 mi SSW 5.8 mph - N/A   Scattered Clouds
7:35 AM 13.8 °F 3.7 °F 10.0 °F 85% 30.29 in 10.0 mi South 6.9 mph - N/A   Clear
7:55 AM 14.4 °F 6.9 °F 10.4 °F 84% 30.29 in 10.0 mi SSW 4.6 mph - N/A   Clear
8:15 AM 15.4 °F 6.8 °F 10.9 °F 82% 30.29 in 10.0 mi SSW 5.8 mph - N/A   Clear
8:35 AM 17.1 °F 6.6 °F 12.0 °F 81% 30.28 in 10.0 mi SSW 8.1 mph - N/A   Clear
8:55 AM 18.9 °F 8.0 °F 13.1 °F 78% 30.29 in 10.0 mi SSW 9.2 mph - N/A   Clear
9:15 AM 20.8 °F 9.7 °F 14.7 °F 77% 30.29 in 10.0 mi SSW 10.4 mph - N/A   Clear
9:35 AM 22.6 °F 11.3 °F 16.2 °F 76% 30.30 in 10.0 mi SSW 11.5 mph - N/A   Clear
9:55 AM 23.0 °F 12.4 °F 16.3 °F 76% 30.30 in 10.0 mi SSW 10.4 mph 18.4 mph N/A   Clear
10:15 AM 25.2 °F 15.7 °F 17.6 °F 73% 30.30 in 10.0 mi SW 9.2 mph - N/A   Clear
10:35 AM 26.8 °F 17.1 °F 18.5 °F 71% 30.29 in 10.0 mi SW 10.4 mph - N/A   Clear
10:55 AM 28.2 °F 18.3 °F 19.4 °F 70% 30.28 in 10.0 mi SW 11.5 mph 17.3 mph N/A   Clear
11:15 AM 29.5 °F 19.9 °F 19.4 °F 66% 30.27 in 10.0 mi SW 11.5 mph 20.7 mph N/A   Clear
11:35 AM 30.6 °F 20.2 °F 19.6 °F 64% 30.26 in 10.0 mi SW 13.8 mph 20.7 mph N/A   Clear
11:55 AM 31.8 °F 21.4 °F 20.3 °F 62% 30.26 in 10.0 mi SW 15.0 mph 21.9 mph N/A   Clear
12:15 PM 31.5 °F 20.9 °F 19.9 °F 62% 30.25 in 10.0 mi SW 15.0 mph 20.7 mph N/A   Clear
12:35 PM 32.0 °F 22.5 °F 19.8 °F 61% 30.24 in 10.0 mi SW 12.7 mph 20.7 mph N/A   Clear
12:55 PM 32.0 °F 21.2 °F 19.8 °F 61% 30.24 in 10.0 mi SW 16.1 mph 23.0 mph N/A   Clear
1:15 PM 32.4 °F 23.5 °F 20.1 °F 61% 30.23 in 10.0 mi WSW 11.5 mph 19.6 mph N/A   Clear
1:35 PM 33.3 °F 24.1 °F 20.3 °F 59% 30.23 in 10.0 mi SW 12.7 mph 18.4 mph N/A   Clear
1:55 PM 33.1 °F 24.4 °F 20.1 °F 59% 30.23 in 10.0 mi SW 11.5 mph 21.9 mph N/A   Clear
2:15 PM 33.6 °F 24.1 °F 20.3 °F 58% 30.23 in 10.0 mi SSW 13.8 mph 21.9 mph N/A   Clear
2:35 PM 33.8 °F 24.3 °F 20.8 °F 59% 30.23 in 10.0 mi SSW 13.8 mph 19.6 mph N/A   Clear
2:55 PM 33.6 °F 24.6 °F 20.3 °F 58% 30.23 in 10.0 mi SW 12.7 mph 23.0 mph N/A   Clear
3:15 PM 33.8 °F 25.3 °F 20.5 °F 58% 30.23 in 10.0 mi SW 11.5 mph 20.7 mph N/A   Clear
3:35 PM 33.8 °F 25.3 °F 20.8 °F 59% 30.23 in 10.0 mi SW 11.5 mph - N/A   Clear
3:55 PM 33.8 °F 24.3 °F 20.7 °F 59% 30.24 in 10.0 mi SSW 13.8 mph - N/A   Clear
4:15 PM 32.9 °F 24.1 °F 20.8 °F 61% 30.24 in 10.0 mi SW 11.5 mph - N/A   Clear
4:35 PM 32.0 °F 23.6 °F 21.6 °F 65% 30.23 in 10.0 mi SSW 10.4 mph - N/A   Clear
4:55 PM 31.6 °F 23.7 °F 21.2 °F 65% 30.24 in 10.0 mi SSW 9.2 mph 17.3 mph N/A   Scattered Clouds
5:15 PM 32.0 °F 24.2 °F 21.2 °F 64% 30.23 in 10.0 mi SSW 9.2 mph - N/A   Clear
5:35 PM 30.9 °F 22.8 °F 21.6 °F 68% 30.24 in 10.0 mi SSW 9.2 mph - N/A   Clear
5:55 PM 30.7 °F 22.6 °F 21.7 °F 69% 30.24 in 10.0 mi SSW 9.2 mph - N/A   Clear
6:15 PM 30.7 °F 22.6 °F 21.7 °F 69% 30.25 in 10.0 mi SSW 9.2 mph - N/A   Clear
6:35 PM 30.9 °F 23.5 °F 21.6 °F 68% 30.25 in 10.0 mi SSW 8.1 mph - N/A   Clear
6:55 PM 30.2 °F 22.6 °F 21.6 °F 70% 30.25 in 10.0 mi SSW 8.1 mph - N/A   Clear
7:15 PM 30.2 °F 21.9 °F 21.7 °F 71% 30.25 in 10.0 mi SSW 9.2 mph - N/A   Clear
7:35 PM 30.2 °F 22.6 °F 21.6 °F 70% 30.25 in 10.0 mi SSW 8.1 mph - N/A   Clear
7:55 PM 30.2 °F 22.6 °F 21.6 °F 70% 30.25 in 10.0 mi SSW 8.1 mph - N/A   Clear
8:15 PM 29.3 °F 21.5 °F 21.6 °F 73% 30.25 in 10.0 mi SSW 8.1 mph - N/A   Clear
8:35 PM 29.7 °F 21.3 °F 21.6 °F 72% 30.25 in 10.0 mi SSW 9.2 mph - N/A   Scattered Clouds
8:55 PM 29.5 °F 21.1 °F 21.7 °F 73% 30.25 in 10.0 mi SSW 9.2 mph - N/A   Clear
9:15 PM 29.7 °F 22.8 °F 21.7 °F 72% 30.25 in 10.0 mi SSW 6.9 mph - N/A   Scattered Clouds
9:35 PM 28.4 °F 21.2 °F 21.2 °F 74% 30.25 in 10.0 mi SSW 6.9 mph - N/A   Scattered Clouds
9:55 PM 27.3 °F 23.4 °F 20.7 °F 76% 30.25 in 10.0 mi South 3.5 mph - N/A   Clear
10:15 PM 27.0 °F 20.5 °F 20.3 °F 76% 30.25 in 10.0 mi South 5.8 mph - N/A   Clear
10:35 PM 26.6 °F 21.2 °F 20.3 °F 77% 30.25 in 10.0 mi SSW 4.6 mph - N/A   Clear
10:55 PM 26.6 °F 21.2 °F 20.5 °F 78% 30.25 in 10.0 mi South 4.6 mph - N/A   Clear
11:15 PM 25.7 °F 20.1 °F 20.5 °F 81% 30.25 in 10.0 mi South 4.6 mph - N/A   Clear
11:35 PM 25.9 °F 19.2 °F 20.7 °F 81% 30.25 in 10.0 mi South 5.8 mph - N/A   Clear
11:55 PM 26.6 °F 19.1 °F 21.0 °F 79% 30.25 in 10.0 mi SSW 6.9 mph - N/A   Scattered Clouds